createdAt,value
2019-02-20T00:01:23.645Z,2.57
2019-02-20T00:03:51.097Z,3.40
2019-02-20T00:06:18.561Z,3.57
2019-02-20T00:08:46.023Z,2.60
2019-02-20T00:11:13.583Z,4.17
2019-02-20T00:13:41.058Z,3.03
2019-02-20T00:16:08.529Z,2.50
2019-02-20T00:18:36.057Z,2.80
2019-02-20T00:21:03.537Z,3.10
2019-02-20T00:23:31.007Z,3.00
2019-02-20T00:25:58.522Z,2.87
2019-02-20T00:28:26.028Z,3.10
2019-02-20T00:30:53.504Z,2.87
2019-02-20T00:33:20.993Z,2.47
2019-02-20T00:35:48.453Z,2.60
2019-02-20T00:38:15.917Z,3.13
2019-02-20T00:40:45.657Z,2.93
2019-02-20T00:43:13.142Z,2.90
2019-02-20T00:45:58.716Z,3.17
2019-02-20T00:48:48.766Z,3.67
2019-02-20T00:51:35.777Z,2.77
2019-02-20T00:54:04.582Z,3.90
2019-02-20T00:56:32.085Z,3.30
2019-02-20T00:58:59.575Z,2.50
2019-02-20T01:01:27.180Z,2.43
2019-02-20T01:03:54.688Z,3.13
2019-02-20T01:06:22.134Z,2.97
2019-02-20T01:08:49.651Z,3.13
2019-02-20T01:11:17.155Z,3.33
2019-02-20T01:13:45.187Z,3.57
2019-02-20T01:16:12.665Z,2.73
2019-02-20T01:18:41.244Z,3.47
2019-02-20T01:21:08.744Z,3.93
2019-02-20T01:23:36.195Z,4.07
2019-02-20T01:26:03.665Z,4.60
2019-02-20T01:28:31.235Z,3.03
2019-02-20T01:30:58.749Z,2.90
2019-02-20T01:33:26.258Z,4.40
2019-02-20T01:35:53.738Z,3.90
2019-02-20T01:38:21.209Z,4.20
2019-02-20T01:40:48.712Z,4.93
2019-02-20T01:43:16.157Z,4.10
2019-02-20T01:45:43.646Z,4.70
2019-02-20T01:48:11.148Z,4.13
2019-02-20T01:50:38.628Z,4.23
2019-02-20T01:53:10.194Z,3.77
2019-02-20T01:55:35.414Z,4.23
2019-02-20T01:58:02.885Z,4.27
2019-02-20T02:00:30.405Z,4.90
2019-02-20T02:02:57.891Z,4.30
2019-02-20T02:05:25.430Z,4.07
2019-02-20T02:07:52.898Z,4.30
2019-02-20T02:10:20.399Z,4.60
2019-02-20T02:12:47.906Z,3.87
2019-02-20T02:15:20.469Z,4.67
2019-02-20T02:17:44.752Z,4.00
2019-02-20T02:20:12.050Z,3.90
2019-02-20T02:22:39.513Z,4.17
2019-02-20T02:25:07.039Z,4.83
2019-02-20T02:27:34.552Z,4.20
2019-02-20T02:30:03.144Z,4.40
2019-02-20T02:32:30.695Z,4.60
2019-02-20T02:34:58.151Z,3.90
2019-02-20T02:37:25.565Z,4.50
2019-02-20T02:39:53.025Z,4.73
2019-02-20T02:42:20.634Z,3.97
2019-02-20T02:44:48.121Z,4.23
2019-02-20T02:47:15.582Z,3.53
2019-02-20T02:49:43.111Z,4.00
2019-02-20T02:52:10.584Z,4.30
2019-02-20T02:54:38.060Z,3.00
2019-02-20T02:57:05.418Z,3.47
2019-02-20T02:59:32.902Z,3.77
2019-02-20T03:02:00.385Z,4.50
2019-02-20T03:04:27.841Z,4.43
2019-02-20T03:06:55.421Z,4.43
2019-02-20T03:09:22.924Z,4.20
2019-02-20T03:11:50.426Z,3.20
2019-02-20T03:14:17.887Z,3.70
2019-02-20T03:16:45.372Z,3.87
2019-02-20T03:19:12.835Z,4.07
2019-02-20T03:21:40.367Z,3.27
2019-02-20T03:24:07.857Z,3.23
2019-02-20T03:26:35.375Z,3.60
2019-02-20T03:29:02.981Z,3.53
2019-02-20T03:31:30.471Z,4.03
2019-02-20T03:33:57.918Z,4.50
2019-02-20T03:36:25.402Z,3.97
2019-02-20T03:38:52.927Z,4.97
2019-02-20T03:41:20.378Z,5.10
2019-02-20T03:43:47.912Z,4.27
2019-02-20T03:46:15.443Z,4.40
2019-02-20T03:48:42.871Z,4.77
2019-02-20T03:51:10.350Z,5.67
2019-02-20T03:53:37.889Z,7.10
2019-02-20T03:56:05.376Z,7.43
2019-02-20T03:58:33.404Z,6.63
2019-02-20T04:01:00.932Z,7.93
2019-02-20T04:03:28.441Z,8.63
2019-02-20T04:05:56.001Z,7.47
2019-02-20T04:08:23.491Z,7.47
2019-02-20T04:10:51.057Z,6.40
2019-02-20T04:13:18.502Z,6.27
2019-02-20T04:15:45.903Z,7.80
2019-02-20T04:18:13.346Z,6.10
2019-02-20T04:20:40.739Z,7.60
2019-02-20T04:23:08.241Z,8.83
2019-02-20T04:25:35.725Z,9.27
2019-02-20T04:28:03.122Z,7.37
2019-02-20T04:30:30.603Z,7.93
2019-02-20T04:32:58.548Z,7.43
2019-02-20T04:35:26.111Z,9.40
2019-02-20T04:37:53.629Z,6.37
2019-02-20T04:40:21.171Z,5.47
2019-02-20T04:42:48.605Z,7.03
2019-02-20T04:45:16.093Z,7.30
2019-02-20T04:47:43.576Z,8.63
2019-02-20T04:50:11.079Z,8.20
2019-02-20T04:52:38.686Z,9.00
2019-02-20T04:55:06.171Z,8.20
2019-02-20T04:57:33.630Z,8.47
2019-02-20T05:00:01.435Z,6.80
2019-02-20T05:02:28.918Z,7.80
2019-02-20T05:04:56.392Z,6.83
2019-02-20T05:07:25.246Z,7.50
2019-02-20T05:09:52.768Z,8.03
2019-02-20T05:12:20.253Z,8.20
2019-02-20T05:14:49.157Z,7.83
2019-02-20T05:17:16.601Z,7.30
2019-02-20T05:19:44.092Z,6.47
2019-02-20T05:22:11.620Z,7.37
2019-02-20T05:24:39.044Z,8.03
2019-02-20T05:27:06.574Z,7.43
2019-02-20T05:29:34.060Z,7.07
2019-02-20T05:32:01.717Z,9.27
2019-02-20T05:34:29.200Z,8.00
2019-02-20T05:36:56.684Z,7.50
2019-02-20T05:39:24.160Z,7.40
2019-02-20T05:41:51.688Z,6.60
2019-02-20T05:44:19.146Z,6.97
2019-02-20T05:46:46.692Z,7.13
2019-02-20T05:49:15.364Z,6.93
2019-02-20T05:51:42.814Z,8.43
2019-02-20T05:54:10.310Z,7.87
2019-02-20T05:56:37.812Z,6.87
2019-02-20T05:59:05.282Z,7.40
2019-02-20T06:01:32.721Z,7.03
2019-02-20T06:04:00.229Z,7.00
2019-02-20T06:06:27.714Z,7.17
2019-02-20T06:08:55.191Z,7.07
2019-02-20T06:11:22.658Z,6.93
2019-02-20T06:13:50.203Z,7.50
2019-02-20T06:16:17.727Z,7.77
2019-02-20T06:18:45.305Z,7.07
2019-02-20T06:21:12.840Z,8.23
2019-02-20T06:23:40.399Z,8.13
2019-02-20T06:26:07.957Z,7.47
2019-02-20T06:28:35.459Z,7.63
2019-02-20T06:31:03.108Z,8.80
2019-02-20T06:33:30.700Z,7.53
2019-02-20T06:36:00.390Z,8.73
2019-02-20T06:38:27.847Z,9.40
2019-02-20T06:40:55.392Z,8.50
2019-02-20T06:43:22.862Z,7.70
2019-02-20T06:45:50.373Z,7.60
2019-02-20T06:48:17.780Z,8.13
2019-02-20T06:50:45.327Z,7.27
2019-02-20T06:53:12.883Z,7.10
2019-02-20T06:55:41.571Z,7.50
2019-02-20T06:58:09.053Z,8.03
2019-02-20T07:00:36.581Z,8.93
2019-02-20T07:03:04.077Z,8.67
2019-02-20T07:05:33.258Z,8.10
2019-02-20T07:08:42.359Z,7.67
2019-02-20T07:11:39.191Z,8.10
2019-02-20T07:14:27.955Z,7.43
2019-02-20T07:17:30.693Z,7.37
2019-02-20T07:20:54.937Z,7.63
2019-02-20T07:23:41.657Z,8.27
2019-02-20T07:26:21.597Z,8.50
2019-02-20T07:29:29.041Z,7.97
2019-02-20T07:31:56.523Z,8.37
2019-02-20T07:34:24.095Z,10.37
2019-02-20T07:36:51.637Z,8.97
2019-02-20T07:39:19.153Z,9.27
2019-02-20T07:41:46.689Z,8.47
2019-02-20T07:44:14.234Z,9.23
2019-02-20T07:46:41.733Z,9.53
2019-02-20T07:49:11.479Z,8.87
2019-02-20T07:51:38.984Z,8.87
2019-02-20T07:54:06.467Z,10.20
2019-02-20T07:56:33.925Z,9.07
2019-02-20T07:59:01.425Z,9.80
2019-02-20T08:01:28.929Z,9.80
2019-02-20T08:03:56.501Z,9.80
2019-02-20T08:06:24.036Z,9.37
2019-02-20T08:08:51.565Z,10.63
2019-02-20T08:11:19.057Z,10.30
2019-02-20T08:13:46.602Z,10.47
2019-02-20T08:16:14.355Z,9.83
2019-02-20T08:18:42.120Z,11.30
2019-02-20T08:21:11.221Z,9.63
2019-02-20T08:23:38.704Z,10.27
2019-02-20T08:26:06.174Z,9.50
2019-02-20T08:28:33.695Z,10.90
2019-02-20T08:31:01.169Z,11.10
2019-02-20T08:33:28.667Z,10.53
2019-02-20T08:35:56.045Z,8.40
2019-02-20T08:38:23.548Z,9.90
2019-02-20T08:40:53.110Z,9.47
2019-02-20T08:43:21.058Z,9.50
2019-02-20T08:45:48.536Z,10.10
2019-02-20T08:48:16.023Z,9.67
2019-02-20T08:50:43.524Z,8.70
2019-02-20T08:53:11.247Z,8.77
2019-02-20T08:55:40.194Z,7.97
2019-02-20T08:58:07.672Z,11.17
2019-02-20T09:00:35.167Z,10.67
2019-02-20T09:03:02.653Z,8.93
2019-02-20T09:05:30.145Z,9.13
2019-02-20T09:07:57.640Z,10.43
2019-02-20T09:10:25.168Z,8.90
2019-02-20T09:12:52.570Z,8.90
2019-02-20T09:15:20.003Z,8.10
2019-02-20T09:17:47.513Z,8.83
2019-02-20T09:20:15.022Z,8.87
2019-02-20T09:22:42.485Z,7.40
2019-02-20T09:25:19.207Z,8.00
2019-02-20T09:27:39.324Z,8.83
2019-02-20T09:30:08.984Z,7.50
2019-02-20T09:32:38.816Z,8.70
2019-02-20T09:35:06.586Z,8.57
2019-02-20T09:37:34.133Z,7.73
2019-02-20T09:42:47.006Z,8.27
2019-02-20T09:45:14.827Z,6.80
2019-02-20T09:47:42.292Z,6.70
2019-02-20T09:50:09.769Z,7.67
2019-02-20T09:52:40.257Z,7.90
2019-02-20T09:55:09.230Z,7.37
2019-02-20T09:57:36.824Z,7.80
2019-02-20T10:00:07.406Z,7.33
2019-02-20T10:02:35.134Z,8.57
2019-02-20T10:05:02.782Z,7.90
2019-02-20T10:07:30.276Z,8.50
2019-02-20T10:09:57.704Z,8.03
2019-02-20T10:12:25.944Z,8.80
2019-02-20T10:14:53.474Z,8.37
2019-02-20T10:17:21.012Z,7.87
2019-02-20T10:19:48.745Z,7.50
2019-02-20T10:22:16.278Z,7.50
2019-02-20T10:24:43.708Z,6.93
2019-02-20T10:27:12.297Z,7.10
2019-02-20T10:29:39.801Z,6.63
2019-02-20T10:32:07.297Z,7.60
2019-02-20T10:34:34.724Z,7.60
2019-02-20T10:37:03.630Z,7.43
2019-02-20T10:42:17.411Z,7.63
2019-02-20T10:44:44.970Z,9.03
2019-02-20T10:47:12.475Z,9.13
2019-02-20T10:49:45.049Z,8.77
2019-02-20T10:52:14.455Z,8.10
2019-02-20T10:54:41.855Z,8.33
2019-02-20T10:57:09.364Z,8.37
2019-02-20T10:59:36.861Z,7.83
2019-02-20T11:02:04.556Z,8.43
2019-02-20T11:04:31.911Z,7.67
2019-02-20T11:06:59.366Z,7.87
2019-02-20T11:09:26.815Z,8.57
2019-02-20T11:11:54.550Z,7.90
2019-02-20T11:14:22.075Z,7.80
2019-02-20T11:16:50.025Z,7.37
2019-02-20T11:19:17.557Z,8.00
2019-02-20T11:21:44.997Z,7.80
2019-02-20T11:24:12.444Z,8.73
2019-02-20T11:26:46.242Z,7.57
2019-02-20T11:29:09.226Z,7.63
2019-02-20T11:31:37.594Z,7.50
2019-02-20T11:34:05.149Z,7.00
2019-02-20T11:36:32.513Z,8.03
2019-02-20T11:39:00.019Z,8.70
2019-02-20T11:41:27.783Z,7.67
2019-02-20T11:43:55.253Z,8.07
2019-02-20T11:46:22.713Z,6.83
2019-02-20T11:48:50.172Z,6.67
2019-02-20T11:51:17.573Z,7.97
2019-02-20T11:53:46.125Z,6.87
2019-02-20T11:56:14.481Z,7.27
2019-02-20T11:58:42.060Z,7.73
2019-02-20T12:01:09.527Z,7.40
2019-02-20T12:03:37.043Z,6.57
2019-02-20T12:06:04.647Z,6.20
2019-02-20T12:08:33.291Z,6.13
2019-02-20T12:11:00.766Z,6.53
2019-02-20T12:13:28.331Z,5.97
2019-02-20T12:18:31.156Z,5.33
2019-02-20T12:20:59.023Z,6.60
2019-02-20T12:23:26.543Z,6.63
2019-02-20T12:25:54.424Z,6.40
2019-02-20T12:28:22.183Z,5.77
2019-02-20T12:30:49.704Z,6.37
2019-02-20T12:33:17.168Z,5.90
2019-02-20T12:35:44.826Z,5.87
2019-02-20T12:38:12.307Z,5.80
2019-02-20T12:40:39.724Z,6.20
2019-02-20T12:43:07.457Z,5.67
2019-02-20T12:45:34.960Z,6.13
2019-02-20T12:48:02.817Z,6.93
2019-02-20T12:50:30.362Z,6.73
2019-02-20T12:52:57.951Z,6.33
2019-02-20T12:55:25.457Z,5.53
2019-02-20T12:57:52.944Z,5.97
2019-02-20T13:00:21.796Z,5.43
2019-02-20T13:02:49.123Z,5.20
2019-02-20T13:05:16.561Z,5.20
2019-02-20T13:07:44.037Z,3.37
2019-02-20T13:10:11.639Z,3.83
2019-02-20T13:12:39.294Z,2.47
2019-02-20T13:15:07.087Z,2.23
2019-02-20T13:17:34.572Z,2.70
2019-02-20T13:20:02.017Z,2.00
2019-02-20T13:22:29.478Z,2.17
2019-02-20T13:24:57.011Z,2.37
2019-02-20T13:27:24.508Z,2.30
2019-02-20T13:29:52.056Z,1.50
2019-02-20T13:32:19.752Z,1.57
2019-02-20T13:34:47.268Z,1.83
2019-02-20T13:37:14.699Z,1.87
2019-02-20T13:39:42.282Z,2.07
2019-02-20T13:42:09.887Z,2.60
2019-02-20T13:44:37.548Z,2.13
2019-02-20T13:47:05.109Z,2.13
2019-02-20T13:49:32.696Z,1.80
2019-02-20T13:52:00.224Z,2.77
2019-02-20T13:54:27.746Z,2.27
2019-02-20T13:57:01.574Z,2.83
2019-02-20T13:59:24.548Z,2.03
2019-02-20T14:01:52.318Z,1.90
2019-02-20T14:04:19.833Z,2.07
2019-02-20T14:06:47.640Z,2.17
2019-02-20T14:09:15.306Z,2.10
2019-02-20T14:11:43.823Z,1.53
2019-02-20T14:14:11.469Z,1.80
2019-02-20T14:16:38.988Z,2.63
2019-02-20T14:19:06.510Z,2.03
2019-02-20T14:21:34.090Z,2.10
2019-02-20T14:24:01.644Z,1.80
2019-02-20T14:26:29.242Z,2.30
2019-02-20T14:28:56.693Z,2.77
2019-02-20T14:31:24.235Z,2.80
2019-02-20T14:33:51.705Z,2.33
2019-02-20T14:36:19.220Z,2.13
2019-02-20T14:38:47.033Z,2.17
2019-02-20T14:41:14.566Z,2.80
2019-02-20T14:43:42.049Z,2.40
2019-02-20T14:46:09.654Z,2.10
2019-02-20T14:48:37.131Z,2.43
2019-02-20T14:51:04.642Z,2.63
2019-02-20T14:53:32.126Z,2.70
2019-02-20T14:55:59.697Z,1.90
2019-02-20T14:58:27.431Z,2.00
2019-02-20T15:00:54.916Z,1.60
2019-02-20T15:03:22.491Z,2.20
2019-02-20T15:05:49.932Z,2.23
2019-02-20T15:08:17.413Z,2.10
2019-02-20T15:10:44.938Z,2.60
2019-02-20T15:13:12.422Z,2.30
2019-02-20T15:15:40.215Z,2.60
2019-02-20T15:18:07.740Z,1.60
2019-02-20T15:20:35.664Z,1.53
2019-02-20T15:23:03.247Z,2.17
2019-02-20T15:25:30.825Z,1.93
2019-02-20T15:27:58.307Z,1.90
2019-02-20T15:30:25.807Z,1.60
2019-02-20T15:32:53.738Z,2.10
2019-02-20T15:35:21.238Z,2.97
2019-02-20T15:37:48.755Z,1.63
2019-02-20T15:40:16.243Z,1.90
2019-02-20T15:42:43.747Z,1.90
2019-02-20T15:45:11.333Z,1.83
2019-02-20T15:47:38.963Z,3.27
2019-02-20T15:50:07.563Z,2.00
2019-02-20T15:52:35.295Z,1.50
2019-02-20T15:55:02.919Z,1.60
2019-02-20T15:57:37.751Z,1.97
2019-02-20T15:59:59.661Z,1.60
2019-02-20T16:02:27.182Z,1.80
2019-02-20T16:04:54.671Z,2.23
2019-02-20T16:07:22.324Z,1.43
2019-02-20T16:09:49.971Z,2.00
2019-02-20T16:12:17.453Z,2.00
2019-02-20T16:14:46.824Z,2.43
2019-02-20T16:17:14.202Z,2.40
2019-02-20T16:19:41.708Z,2.27
2019-02-20T16:22:09.213Z,2.27
2019-02-20T16:24:36.698Z,2.13
2019-02-20T16:27:04.142Z,2.40
2019-02-20T16:29:31.730Z,3.33
2019-02-20T16:31:59.137Z,3.70
2019-02-20T16:34:26.589Z,3.43
2019-02-20T16:36:54.118Z,4.23
2019-02-20T16:39:21.614Z,4.00
2019-02-20T16:41:49.123Z,4.23
2019-02-20T16:44:16.588Z,3.53
2019-02-20T16:46:44.288Z,3.70
2019-02-20T16:49:11.806Z,4.30
2019-02-20T16:51:39.267Z,4.40
2019-02-20T16:54:06.930Z,5.67
2019-02-20T16:56:34.462Z,5.37
2019-02-20T16:59:05.090Z,6.67
2019-02-20T17:01:31.398Z,6.40
2019-02-20T17:03:59.150Z,5.17
2019-02-20T17:06:26.652Z,4.27
2019-02-20T17:08:54.168Z,5.07
2019-02-20T17:11:21.690Z,4.80
2019-02-20T17:13:49.179Z,4.83
2019-02-20T17:16:16.926Z,6.40
2019-02-20T17:18:44.375Z,4.53
2019-02-20T17:21:11.844Z,3.80
2019-02-20T17:23:39.319Z,4.00
2019-02-20T17:26:06.865Z,4.43
2019-02-20T17:28:34.344Z,4.40
2019-02-20T17:31:01.780Z,4.83
2019-02-20T17:33:29.396Z,4.57
2019-02-20T17:35:56.995Z,4.60
2019-02-20T17:38:24.561Z,4.47
2019-02-20T17:40:52.119Z,5.27
2019-02-20T17:43:19.779Z,5.03
2019-02-20T17:45:47.212Z,5.23
2019-02-20T17:48:14.804Z,5.57
2019-02-20T17:50:42.768Z,5.80
2019-02-20T17:53:10.395Z,6.23
2019-02-20T17:55:38.068Z,6.10
2019-02-20T17:58:14.558Z,5.00
2019-02-20T18:00:36.889Z,5.70
2019-02-20T18:03:04.413Z,6.10
2019-02-20T18:05:31.896Z,6.37
2019-02-20T18:07:59.354Z,6.40
2019-02-20T18:10:26.818Z,6.83
2019-02-20T18:12:54.278Z,6.77
2019-02-20T18:15:21.799Z,7.57
2019-02-20T18:17:49.287Z,6.30
2019-02-20T18:20:16.757Z,6.77
2019-02-20T18:22:44.263Z,6.53
2019-02-20T18:25:11.667Z,7.20
2019-02-20T18:27:39.039Z,7.37
2019-02-20T18:30:06.883Z,6.80
2019-02-20T18:32:35.139Z,6.57
2019-02-20T18:35:02.585Z,7.43
2019-02-20T18:37:30.063Z,7.57
2019-02-20T18:39:57.468Z,6.90
2019-02-20T18:42:25.199Z,6.60
2019-02-20T18:44:52.667Z,6.90
2019-02-20T18:47:20.092Z,6.30
2019-02-20T18:49:49.451Z,8.13
2019-02-20T18:52:16.751Z,11.40
2019-02-20T18:54:45.128Z,7.00
2019-02-20T18:57:12.693Z,8.87
2019-02-20T18:59:40.160Z,7.20
2019-02-20T19:02:07.612Z,8.13
2019-02-20T19:04:35.109Z,7.80
2019-02-20T19:07:08.810Z,9.33
2019-02-20T19:09:36.439Z,7.97
2019-02-20T19:12:35.193Z,7.03
2019-02-20T19:15:34.358Z,6.60
2019-02-20T19:18:14.508Z,6.30
2019-02-20T19:20:56.372Z,6.60
2019-02-20T19:24:11.472Z,6.53
2019-02-20T19:26:48.432Z,8.03
2019-02-20T19:29:56.258Z,6.47
2019-02-20T19:33:00.453Z,6.87
2019-02-20T19:35:58.544Z,7.43
2019-02-20T19:39:12.692Z,7.87
2019-02-20T19:42:39.089Z,7.40
2019-02-20T19:45:41.223Z,7.30
2019-02-20T19:48:36.406Z,6.87
2019-02-20T19:52:09.438Z,7.07
2019-02-20T19:54:46.057Z,6.40
2019-02-20T19:57:42.502Z,8.27
2019-02-20T20:00:34.425Z,8.63
2019-02-20T20:03:45.948Z,8.23
2019-02-20T20:06:50.979Z,8.23
2019-02-20T20:09:44.578Z,7.67
2019-02-20T20:12:59.520Z,8.13
2019-02-20T20:15:56.211Z,7.80
2019-02-20T20:19:13.414Z,7.93
2019-02-20T20:22:27.800Z,8.57
2019-02-20T20:25:27.154Z,8.07
2019-02-20T20:28:23.114Z,9.13
2019-02-20T20:31:12.402Z,8.40
2019-02-20T20:34:19.193Z,9.20
2019-02-20T20:36:57.639Z,8.27
2019-02-20T20:40:10.795Z,8.40
2019-02-20T20:43:06.494Z,8.07
2019-02-20T20:46:08.788Z,7.83
2019-02-20T20:49:19.826Z,9.00
2019-02-20T20:52:42.799Z,7.40
2019-02-20T20:55:41.519Z,8.23
2019-02-20T20:58:50.440Z,7.67
2019-02-20T21:01:51.299Z,7.50
2019-02-20T21:04:57.296Z,8.13
2019-02-20T21:07:54.719Z,8.30
2019-02-20T21:10:59.743Z,8.50
2019-02-20T21:14:07.787Z,7.57
2019-02-20T21:17:28.098Z,8.00
2019-02-20T21:20:36.263Z,8.83
2019-02-20T21:24:09.835Z,10.87
2019-02-20T21:26:59.408Z,9.53
2019-02-20T21:29:47.076Z,9.90
2019-02-20T21:33:16.583Z,10.37
2019-02-20T21:36:06.162Z,10.57
2019-02-20T21:39:08.048Z,8.47
2019-02-20T21:42:32.071Z,8.20
2019-02-20T21:45:56.632Z,7.80
2019-02-20T21:49:08.257Z,11.23
2019-02-20T21:52:35.247Z,9.10
2019-02-20T21:55:56.965Z,8.23
2019-02-20T21:59:21.183Z,8.13
2019-02-20T22:02:11.752Z,6.93
2019-02-20T22:05:16.999Z,7.43
2019-02-20T22:08:20.723Z,8.77
2019-02-20T22:11:44.885Z,8.10
2019-02-20T22:14:46.749Z,8.57
2019-02-20T22:17:24.808Z,7.90
2019-02-20T22:20:43.382Z,8.43
2019-02-20T22:24:03.555Z,8.27
2019-02-20T22:26:53.029Z,7.53
2019-02-20T22:29:56.628Z,8.37
2019-02-20T22:33:13.365Z,8.73
2019-02-20T22:36:16.186Z,7.63
2019-02-20T22:39:18.569Z,7.37
2019-02-20T22:42:12.134Z,7.37
2019-02-20T22:45:35.195Z,8.97
2019-02-20T22:48:40.439Z,8.90
2019-02-20T22:51:30.527Z,8.37
2019-02-20T22:54:25.809Z,8.17
2019-02-20T22:57:56.303Z,8.97
2019-02-20T23:01:03.028Z,8.40
2019-02-20T23:03:58.937Z,7.90
2019-02-20T23:07:04.779Z,9.33
2019-02-20T23:09:45.626Z,7.40
2019-02-20T23:13:15.819Z,8.33
2019-02-20T23:15:43.425Z,8.63
2019-02-20T23:18:10.855Z,8.03
2019-02-20T23:20:38.328Z,8.20
2019-02-20T23:23:05.834Z,7.53
2019-02-20T23:25:33.295Z,8.67
2019-02-20T23:28:00.771Z,8.27
2019-02-20T23:30:28.219Z,8.40
2019-02-20T23:32:55.634Z,8.70
2019-02-20T23:35:23.022Z,7.67
2019-02-20T23:37:50.441Z,8.27
2019-02-20T23:40:17.989Z,8.53
2019-02-20T23:42:45.450Z,9.77
2019-02-20T23:45:12.932Z,8.73
2019-02-20T23:47:40.388Z,8.83
2019-02-20T23:50:07.771Z,10.37
2019-02-20T23:52:35.158Z,9.93
2019-02-20T23:55:02.541Z,9.87
2019-02-20T23:57:29.950Z,10.30
2019-02-20T23:59:57.431Z,10.37
